createdAt,value
2023-01-03T00:02:11.655Z,1.52
2023-01-03T00:04:40.391Z,1.75
2023-01-03T00:07:09.483Z,2.03
2023-01-03T00:09:36.666Z,1.73
2023-01-03T00:12:25.635Z,1.85
2023-01-03T00:14:57.434Z,1.38
2023-01-03T00:17:25.413Z,2.45
2023-01-03T00:19:52.610Z,3.22
2023-01-03T00:22:19.978Z,1.95
2023-01-03T00:24:56.227Z,3.25
2023-01-03T00:27:23.442Z,2.13
2023-01-03T00:29:50.482Z,1.60
2023-01-03T00:32:17.628Z,1.50
2023-01-03T00:34:46.385Z,2.25
2023-01-03T00:37:14.624Z,1.75
2023-01-03T00:39:41.833Z,2.67
2023-01-03T00:42:08.926Z,2.65
2023-01-03T00:44:36.030Z,1.60
2023-01-03T00:47:03.201Z,1.52
2023-01-03T00:49:30.247Z,3.40
2023-01-03T00:51:57.477Z,2.85
2023-01-03T00:54:24.820Z,2.08
2023-01-03T00:56:52.423Z,2.25
2023-01-03T00:59:20.812Z,3.60
2023-01-03T01:01:56.742Z,2.53
2023-01-03T01:04:31.400Z,1.80
2023-01-03T01:07:01.231Z,3.45
2023-01-03T01:09:31.484Z,2.97
2023-01-03T01:11:58.741Z,4.03
2023-01-03T01:14:28.001Z,3.67
2023-01-03T01:17:01.104Z,2.38
2023-01-03T01:19:34.198Z,3.55
2023-01-03T01:22:01.763Z,2.67
2023-01-03T01:25:19.803Z,3.33
2023-01-03T01:27:46.762Z,2.72
2023-01-03T01:30:13.816Z,3.30
2023-01-03T01:32:40.794Z,4.43
2023-01-03T01:35:08.153Z,3.42
2023-01-03T01:37:35.122Z,2.63
2023-01-03T01:40:03.306Z,3.05
2023-01-03T01:42:48.774Z,2.47
2023-01-03T01:45:15.888Z,3.30
2023-01-03T01:47:55.846Z,3.45
2023-01-03T01:50:31.828Z,2.95
2023-01-03T01:53:15.147Z,2.72
2023-01-03T01:55:59.122Z,4.65
2023-01-03T01:58:28.882Z,3.92
2023-01-03T02:03:23.070Z,3.47
2023-01-03T02:05:53.307Z,2.65
2023-01-03T02:08:21.195Z,3.35
2023-01-03T02:11:06.072Z,4.68
2023-01-03T02:14:14.882Z,2.78
2023-01-03T02:16:50.703Z,2.73
2023-01-03T02:19:36.844Z,3.97
2023-01-03T02:22:34.827Z,3.20
2023-01-03T02:29:02.694Z,2.80
2023-01-03T02:31:29.709Z,4.60
2023-01-03T02:34:21.494Z,3.95
2023-01-03T02:36:54.237Z,2.15
2023-01-03T02:39:53.714Z,4.22
2023-01-03T02:43:05.910Z,3.15
2023-01-03T02:45:54.616Z,3.38
2023-01-03T02:48:24.341Z,6.68
2023-01-03T02:50:56.716Z,3.45
2023-01-03T02:53:35.184Z,3.33
2023-01-03T02:56:08.773Z,3.63
2023-01-03T02:58:39.111Z,3.47
2023-01-03T03:01:08.836Z,4.35
2023-01-03T03:03:40.345Z,3.47
2023-01-03T03:06:25.926Z,3.55
2023-01-03T03:08:53.071Z,5.65
2023-01-03T03:11:38.542Z,3.90
2023-01-03T03:14:08.239Z,3.10
2023-01-03T03:19:47.216Z,3.45
2023-01-03T03:22:36.072Z,2.22
2023-01-03T03:25:09.761Z,3.28
2023-01-03T03:27:59.930Z,4.45
2023-01-03T03:30:28.770Z,3.25
2023-01-03T03:33:01.806Z,2.80
2023-01-03T03:35:31.250Z,3.22
2023-01-03T03:38:00.911Z,2.53
2023-01-03T03:44:02.433Z,2.75
2023-01-03T03:46:41.834Z,2.90
2023-01-03T03:52:01.333Z,3.90
2023-01-03T03:54:31.724Z,7.03
2023-01-03T03:57:06.795Z,3.63
2023-01-03T03:59:35.192Z,3.63
2023-01-03T04:02:05.053Z,3.60
2023-01-03T04:04:41.799Z,5.05
2023-01-03T04:07:08.994Z,4.40
2023-01-03T04:09:36.302Z,6.35
2023-01-03T04:12:03.459Z,5.10
2023-01-03T04:14:30.580Z,4.05
2023-01-03T04:16:58.836Z,4.50
2023-01-03T04:19:25.916Z,4.25
2023-01-03T04:21:52.947Z,3.13
2023-01-03T04:24:22.303Z,3.20
2023-01-03T04:26:49.469Z,3.33
2023-01-03T04:29:16.777Z,4.50
2023-01-03T04:31:43.858Z,3.45
2023-01-03T04:34:10.941Z,5.07
2023-01-03T04:36:37.996Z,3.80
2023-01-03T04:39:04.985Z,5.22
2023-01-03T04:41:32.077Z,5.35
2023-01-03T04:44:01.828Z,4.82
2023-01-03T04:46:33.861Z,5.55
2023-01-03T04:49:01.466Z,5.28
2023-01-03T04:51:29.041Z,3.75
2023-01-03T04:53:56.223Z,3.85
2023-01-03T04:56:28.487Z,4.85
2023-01-03T04:58:55.969Z,5.25
2023-01-03T05:01:23.762Z,4.65
2023-01-03T05:07:51.198Z,5.15
2023-01-03T05:10:18.339Z,6.78
2023-01-03T05:12:59.846Z,5.43
2023-01-03T05:15:31.966Z,3.67
2023-01-03T05:17:59.011Z,4.80
2023-01-03T05:20:44.599Z,5.10
2023-01-03T05:23:34.700Z,4.30
2023-01-03T05:26:14.183Z,5.47
2023-01-03T05:28:43.506Z,7.28
2023-01-03T05:31:10.595Z,5.43
2023-01-03T05:33:41.845Z,5.40
2023-01-03T05:36:10.239Z,5.05
2023-01-03T05:38:38.617Z,5.47
2023-01-03T05:41:06.250Z,4.72
2023-01-03T05:43:33.271Z,4.28
2023-01-03T05:46:00.408Z,10.18
2023-01-03T05:48:27.657Z,4.82
2023-01-03T05:50:58.032Z,6.32
2023-01-03T05:53:25.473Z,5.65
2023-01-03T05:55:52.701Z,7.20
2023-01-03T05:58:19.792Z,5.20
2023-01-03T06:00:47.657Z,5.55
2023-01-03T06:03:14.703Z,4.78
2023-01-03T06:05:47.935Z,5.20
2023-01-03T06:08:17.727Z,6.10
2023-01-03T06:10:44.729Z,5.50
2023-01-03T06:13:11.705Z,5.15
2023-01-03T06:15:38.753Z,5.68
2023-01-03T06:18:05.705Z,5.25
2023-01-03T06:20:33.097Z,5.28
2023-01-03T06:23:00.133Z,5.15
2023-01-03T06:25:27.235Z,5.60
2023-01-03T06:27:55.448Z,5.90
2023-01-03T06:30:22.501Z,6.45
2023-01-03T06:32:49.471Z,6.18
2023-01-03T06:35:16.548Z,7.15
2023-01-03T06:37:43.632Z,5.13
2023-01-03T06:40:11.263Z,6.90
2023-01-03T06:42:44.470Z,7.97
2023-01-03T06:45:31.968Z,6.22
2023-01-03T06:48:21.951Z,5.78
2023-01-03T06:51:07.478Z,5.13
2023-01-03T06:53:37.826Z,4.35
2023-01-03T06:56:06.004Z,5.13
2023-01-03T06:58:33.321Z,8.98
2023-01-03T07:01:05.530Z,4.55
2023-01-03T07:03:32.966Z,8.00
2023-01-03T07:06:00.421Z,4.88
2023-01-03T07:08:27.459Z,4.57
2023-01-03T07:10:55.358Z,6.80
2023-01-03T07:13:41.321Z,6.43
2023-01-03T07:16:15.130Z,6.20
2023-01-03T07:18:42.575Z,7.20
2023-01-03T07:21:10.046Z,6.95
2023-01-03T07:23:37.338Z,7.82
2023-01-03T07:26:04.800Z,7.07
2023-01-03T07:28:31.894Z,7.30
2023-01-03T07:31:04.163Z,8.15
2023-01-03T07:33:33.833Z,7.22
2023-01-03T07:38:40.081Z,5.28
2023-01-03T07:41:10.040Z,8.35
2023-01-03T07:43:38.676Z,9.10
2023-01-03T07:46:24.779Z,7.60
2023-01-03T07:48:57.148Z,5.57
2023-01-03T07:51:24.167Z,5.90
2023-01-03T07:53:52.814Z,7.07
2023-01-03T07:56:21.413Z,6.30
2023-01-03T07:58:51.275Z,5.60
2023-01-03T08:01:22.293Z,6.15
2023-01-03T08:03:50.482Z,7.57
2023-01-03T08:06:20.416Z,7.78
2023-01-03T08:09:10.552Z,6.93
2023-01-03T08:11:56.585Z,10.43
2023-01-03T08:14:26.012Z,6.90
2023-01-03T08:19:20.518Z,7.57
2023-01-03T08:21:47.589Z,8.95
2023-01-03T08:24:14.646Z,7.80
2023-01-03T08:26:41.870Z,7.78
2023-01-03T08:29:08.953Z,8.38
2023-01-03T08:31:40.749Z,9.60
2023-01-03T08:34:17.028Z,6.60
2023-01-03T08:36:50.679Z,7.85
2023-01-03T08:39:24.481Z,6.82
2023-01-03T08:41:55.921Z,6.65
2023-01-03T08:44:22.912Z,13.30
2023-01-03T08:46:53.777Z,5.78
2023-01-03T08:49:21.570Z,7.38
2023-01-03T08:51:48.717Z,6.78
2023-01-03T08:55:08.417Z,8.30
2023-01-03T08:57:35.436Z,10.55
2023-01-03T09:00:02.715Z,10.10
2023-01-03T09:02:29.822Z,7.32
2023-01-03T09:04:57.003Z,5.75
2023-01-03T09:07:24.006Z,7.28
2023-01-03T09:09:51.050Z,5.72
2023-01-03T09:12:18.098Z,6.85
2023-01-03T09:14:45.165Z,6.60
2023-01-03T09:17:12.225Z,4.93
2023-01-03T09:19:39.246Z,6.47
2023-01-03T09:28:52.806Z,7.13
2023-01-03T09:31:19.905Z,11.63
2023-01-03T09:33:46.988Z,9.70
2023-01-03T09:36:14.074Z,11.32
2023-01-03T09:38:41.085Z,7.35
2023-01-03T09:41:12.697Z,7.47
2023-01-03T09:43:42.968Z,7.22
2023-01-03T09:46:18.567Z,6.38
2023-01-03T09:48:46.706Z,7.53
2023-01-03T09:51:57.387Z,8.13
2023-01-03T09:54:57.361Z,9.65
2023-01-03T09:57:51.443Z,7.97
2023-01-03T10:05:17.609Z,6.10
2023-01-03T10:07:55.403Z,6.28
2023-01-03T10:10:50.682Z,6.75
2023-01-03T10:13:36.017Z,7.03
2023-01-03T10:16:25.304Z,9.75
2023-01-03T10:19:22.516Z,7.20
2023-01-03T10:22:13.055Z,7.28
2023-01-03T10:24:57.572Z,6.32
2023-01-03T10:27:27.868Z,5.43
2023-01-03T10:30:00.055Z,5.25
2023-01-03T10:32:59.993Z,6.45
2023-01-03T10:35:35.950Z,5.55
2023-01-03T10:38:03.647Z,5.72
2023-01-03T10:40:35.692Z,5.07
2023-01-03T10:47:17.360Z,4.88
2023-01-03T10:49:47.619Z,6.00
2023-01-03T10:52:20.263Z,5.50
2023-01-03T10:54:52.509Z,6.05
2023-01-03T10:57:43.793Z,6.13
2023-01-03T11:00:28.504Z,5.95
2023-01-03T11:03:02.133Z,6.00
2023-01-03T11:06:20.692Z,6.85
2023-01-03T11:08:56.361Z,2.72
2023-01-03T11:11:36.031Z,7.32
2023-01-03T11:16:37.356Z,4.28
2023-01-03T11:19:06.908Z,4.30
2023-01-03T11:21:47.028Z,5.15
2023-01-03T11:24:41.101Z,3.58
2023-01-03T11:27:31.381Z,6.70
2023-01-03T11:30:21.261Z,3.78
2023-01-03T11:33:14.740Z,4.28
2023-01-03T11:36:06.996Z,6.35
2023-01-03T11:39:16.321Z,3.40
2023-01-03T11:42:09.915Z,6.10
2023-01-03T11:45:20.288Z,3.00
2023-01-03T11:48:18.688Z,3.60
2023-01-03T11:51:03.495Z,2.63
2023-01-03T11:53:38.881Z,4.07
2023-01-03T11:56:30.591Z,3.35
2023-01-03T11:59:28.816Z,3.78
2023-01-03T12:02:32.416Z,3.70
2023-01-03T12:05:18.795Z,2.85
2023-01-03T12:07:58.524Z,5.30
2023-01-03T12:10:25.776Z,2.13
2023-01-03T12:13:05.618Z,2.92
2023-01-03T12:16:11.179Z,1.58
2023-01-03T12:18:41.240Z,6.13
2023-01-03T12:21:23.255Z,3.75
2023-01-03T12:24:06.924Z,2.28
2023-01-03T12:26:36.227Z,2.67
2023-01-03T12:29:14.600Z,2.72
2023-01-03T12:31:51.249Z,2.20
2023-01-03T12:34:45.353Z,4.85
2023-01-03T12:37:17.606Z,1.17
2023-01-03T12:39:55.526Z,1.00
2023-01-03T12:42:37.556Z,1.35
2023-01-03T12:45:13.711Z,3.15
2023-01-03T12:47:42.957Z,2.83
2023-01-03T12:50:21.591Z,2.97
2023-01-03T12:53:03.560Z,4.32
2023-01-03T12:55:53.475Z,1.08
2023-01-03T12:58:39.961Z,2.25
2023-01-03T13:01:15.823Z,3.70
2023-01-03T13:03:52.926Z,2.55
2023-01-03T13:06:28.577Z,2.33
2023-01-03T13:09:16.459Z,0.70
2023-01-03T13:11:52.933Z,1.48
2023-01-03T13:14:21.576Z,1.25
2023-01-03T13:16:50.558Z,1.60
2023-01-03T13:19:21.464Z,2.13
2023-01-03T13:21:54.505Z,1.63
2023-01-03T13:24:44.321Z,3.80
2023-01-03T13:27:20.694Z,1.45
2023-01-03T13:29:50.707Z,1.58
2023-01-03T13:32:20.719Z,0.95
2023-01-03T13:34:56.651Z,2.88
2023-01-03T13:37:24.808Z,2.67
2023-01-03T13:39:51.754Z,1.60
2023-01-03T13:42:35.692Z,2.22
2023-01-03T13:45:23.707Z,3.05
2023-01-03T13:47:52.899Z,2.47
2023-01-03T13:50:24.958Z,1.48
2023-01-03T13:53:05.484Z,1.40
2023-01-03T13:55:54.791Z,1.63
2023-01-03T13:58:28.123Z,2.47
2023-01-03T14:01:05.919Z,2.22
2023-01-03T14:03:36.548Z,1.20
2023-01-03T14:06:41.194Z,1.63
2023-01-03T14:09:19.541Z,1.20
2023-01-03T14:12:04.656Z,7.20
2023-01-03T14:14:36.192Z,1.95
2023-01-03T14:17:04.398Z,3.20
2023-01-03T14:19:36.864Z,2.50
2023-01-03T14:22:28.061Z,2.05
2023-01-03T14:24:57.674Z,0.88
2023-01-03T14:27:32.527Z,1.95
2023-01-03T14:30:00.494Z,0.98
2023-01-03T14:32:35.267Z,3.00
2023-01-03T14:35:03.310Z,0.65
2023-01-03T14:37:33.245Z,1.40
2023-01-03T14:40:03.975Z,2.05
2023-01-03T14:42:31.215Z,1.00
2023-01-03T14:44:58.182Z,1.35
2023-01-03T14:47:41.707Z,0.60
2023-01-03T14:50:29.472Z,0.88
2023-01-03T14:52:58.815Z,3.13
2023-01-03T14:55:32.724Z,1.98
2023-01-03T14:58:05.011Z,0.95
2023-01-03T15:00:35.368Z,0.52
2023-01-03T15:03:03.713Z,2.72
2023-01-03T15:05:40.767Z,2.15
2023-01-03T15:08:29.910Z,2.42
2023-01-03T15:10:57.054Z,4.93
2023-01-03T15:13:36.490Z,2.08
2023-01-03T15:16:18.995Z,3.83
2023-01-03T15:18:47.073Z,1.85
2023-01-03T15:21:18.115Z,1.05
2023-01-03T15:23:47.313Z,2.45
2023-01-03T15:26:26.408Z,3.22
2023-01-03T15:29:04.235Z,3.30
2023-01-03T15:31:46.976Z,4.80
2023-01-03T15:34:24.867Z,3.42
2023-01-03T15:37:01.027Z,2.92
2023-01-03T15:39:45.486Z,2.78
2023-01-03T15:42:44.487Z,2.80
2023-01-03T15:45:26.025Z,5.35
2023-01-03T15:47:59.431Z,3.20
2023-01-03T15:54:45.919Z,3.83
2023-01-03T15:57:22.706Z,3.38
2023-01-03T15:59:55.106Z,5.00
2023-01-03T16:02:24.757Z,4.63
2023-01-03T16:04:53.608Z,3.53
2023-01-03T16:07:20.669Z,4.93
2023-01-03T16:09:47.975Z,2.17
2023-01-03T16:12:25.121Z,9.05
2023-01-03T16:14:54.154Z,3.20
2023-01-03T16:17:28.479Z,3.60
2023-01-03T16:19:59.043Z,2.90
2023-01-03T16:22:35.411Z,6.05
2023-01-03T16:25:04.662Z,10.38
2023-01-03T16:27:31.901Z,9.10
2023-01-03T16:29:59.192Z,11.15
2023-01-03T16:32:29.064Z,9.50
2023-01-03T16:37:24.546Z,13.88
2023-01-03T16:39:51.533Z,11.45
2023-01-03T16:42:21.514Z,8.68
2023-01-03T16:44:48.851Z,6.07
2023-01-03T16:47:24.730Z,6.72
2023-01-03T16:49:57.667Z,4.35
2023-01-03T16:52:27.817Z,3.45
2023-01-03T16:54:55.287Z,4.75
2023-01-03T16:57:23.047Z,4.82
2023-01-03T16:59:50.267Z,3.63
2023-01-03T17:02:17.591Z,3.80
2023-01-03T17:04:44.964Z,3.45
2023-01-03T17:07:21.560Z,6.88
2023-01-03T17:09:51.003Z,5.80
2023-01-03T17:12:21.853Z,6.28
2023-01-03T17:14:50.021Z,8.48
2023-01-03T17:17:19.463Z,8.77
2023-01-03T17:20:05.030Z,6.50
2023-01-03T17:23:45.854Z,7.65
2023-01-03T17:26:20.731Z,4.50
2023-01-03T17:28:49.278Z,2.17
2023-01-03T17:31:20.257Z,13.90
2023-01-03T17:33:47.580Z,24.33
2023-01-03T17:36:34.908Z,106.43
2023-01-03T17:39:03.792Z,116.55
2023-01-03T17:41:51.397Z,87.28
2023-01-03T17:44:30.913Z,30.35
2023-01-03T17:47:34.834Z,22.17
2023-01-03T17:50:01.989Z,10.48
2023-01-03T17:52:32.901Z,31.77
2023-01-03T17:55:00.244Z,98.72
2023-01-03T17:58:35.821Z,128.57
2023-01-03T18:05:29.047Z,34.85
2023-01-03T18:08:01.351Z,16.92
2023-01-03T18:10:46.393Z,13.63
2023-01-03T18:13:23.556Z,40.95
2023-01-03T18:15:50.788Z,50.85
2023-01-03T18:18:19.761Z,61.92
2023-01-03T18:20:47.323Z,76.40
2023-01-03T18:23:18.292Z,51.55
2023-01-03T18:25:46.751Z,46.47
2023-01-03T18:28:20.568Z,30.50
2023-01-03T18:30:47.677Z,16.77
2023-01-03T18:33:14.730Z,8.18
2023-01-03T18:35:42.468Z,5.05
2023-01-03T18:38:41.546Z,6.40
2023-01-03T18:41:21.885Z,5.97
2023-01-03T18:43:48.907Z,5.50
2023-01-03T18:46:17.050Z,4.80
2023-01-03T18:48:44.136Z,11.57
2023-01-03T18:51:24.635Z,12.23
2023-01-03T18:58:22.744Z,9.32
2023-01-03T19:00:49.845Z,7.13
2023-01-03T19:03:25.362Z,7.63
2023-01-03T19:05:55.434Z,11.57
2023-01-03T19:08:25.099Z,14.13
2023-01-03T19:11:19.565Z,11.32
2023-01-03T19:13:55.401Z,9.52
2023-01-03T19:16:25.072Z,10.98
2023-01-03T19:18:52.847Z,6.97
2023-01-03T19:21:21.322Z,5.10
2023-01-03T19:23:58.593Z,4.15
2023-01-03T19:26:49.915Z,4.47
2023-01-03T19:29:26.383Z,6.35
2023-01-03T19:31:56.059Z,3.45
2023-01-03T19:36:51.956Z,3.95
2023-01-03T19:39:25.378Z,2.25
2023-01-03T19:42:15.057Z,3.97
2023-01-03T19:45:28.785Z,2.65
2023-01-03T19:47:56.787Z,6.15
2023-01-03T19:50:29.384Z,4.43
2023-01-03T19:52:57.059Z,4.90
2023-01-03T19:55:29.891Z,5.07
2023-01-03T19:57:58.482Z,4.22
2023-01-03T20:00:28.372Z,3.00
2023-01-03T20:03:07.625Z,3.95
2023-01-03T20:05:35.658Z,4.30
2023-01-03T20:08:12.067Z,4.28
2023-01-03T20:10:41.213Z,5.85
2023-01-03T20:13:23.314Z,6.07
2023-01-03T20:15:52.268Z,4.40
2023-01-03T20:18:32.249Z,4.50
2023-01-03T20:21:04.311Z,6.85
2023-01-03T20:27:46.314Z,3.20
2023-01-03T20:30:18.568Z,4.30
2023-01-03T20:37:32.263Z,3.42
2023-01-03T20:39:59.306Z,3.88
2023-01-03T20:42:50.800Z,3.53
2023-01-03T20:45:18.684Z,3.65
2023-01-03T20:47:49.983Z,5.28
2023-01-03T20:50:26.888Z,5.35
2023-01-03T20:52:54.611Z,6.78
2023-01-03T20:55:23.823Z,5.75
2023-01-03T20:58:29.045Z,4.78
2023-01-03T21:01:04.078Z,6.30
2023-01-03T21:03:32.539Z,6.40
2023-01-03T21:06:52.081Z,4.53
2023-01-03T21:11:47.212Z,5.32
2023-01-03T21:14:14.849Z,5.45
2023-01-03T21:16:44.339Z,4.68
2023-01-03T21:21:43.560Z,3.90
2023-01-03T21:24:12.530Z,5.40
2023-01-03T21:26:40.292Z,2.67
2023-01-03T21:29:08.059Z,5.15
2023-01-03T21:31:36.754Z,6.05
2023-01-03T21:34:06.075Z,5.13
2023-01-03T21:36:35.755Z,4.03
2023-01-03T21:39:03.939Z,4.25
2023-01-03T21:41:33.421Z,3.17
2023-01-03T21:44:07.498Z,3.70
2023-01-03T21:46:34.574Z,4.60
2023-01-03T21:49:01.692Z,3.03
2023-01-03T21:51:38.322Z,5.70
2023-01-03T21:54:09.527Z,7.32
2023-01-03T21:56:46.320Z,3.85
2023-01-03T21:59:15.547Z,6.28
2023-01-03T22:02:02.959Z,5.15
2023-01-03T22:05:30.412Z,5.57
2023-01-03T22:07:57.484Z,3.90
2023-01-03T22:10:25.207Z,4.05
2023-01-03T22:12:55.152Z,3.63
2023-01-03T22:15:23.250Z,5.05
2023-01-03T22:17:51.138Z,8.32
2023-01-03T22:20:19.993Z,6.30
2023-01-03T22:22:47.166Z,4.07
2023-01-03T22:25:17.112Z,3.70
2023-01-03T22:27:44.903Z,5.25
2023-01-03T22:30:21.154Z,6.72
2023-01-03T22:32:48.298Z,3.75
2023-01-03T22:35:18.719Z,6.75
2023-01-03T22:37:45.812Z,4.82
2023-01-03T22:40:14.622Z,6.05
2023-01-03T22:42:41.712Z,4.80
2023-01-03T22:45:10.002Z,3.85
2023-01-03T22:47:37.933Z,3.78
2023-01-03T22:50:07.069Z,6.03
2023-01-03T22:52:34.958Z,3.92
2023-01-03T22:55:02.047Z,4.10
2023-01-03T22:57:29.156Z,3.65
2023-01-03T22:59:56.129Z,4.15
2023-01-03T23:02:28.561Z,5.53
2023-01-03T23:04:56.213Z,6.10
2023-01-03T23:07:23.266Z,6.72
2023-01-03T23:09:50.313Z,5.82
2023-01-03T23:12:35.970Z,4.32
2023-01-03T23:19:23.090Z,4.72
2023-01-03T23:21:50.861Z,4.63
2023-01-03T23:24:21.288Z,3.08
2023-01-03T23:26:48.496Z,4.22
2023-01-03T23:29:15.788Z,3.85
2023-01-03T23:31:44.157Z,4.18
2023-01-03T23:34:12.242Z,4.88
2023-01-03T23:36:39.947Z,6.70
2023-01-03T23:39:06.924Z,6.53
2023-01-03T23:41:34.662Z,5.88
2023-01-03T23:44:01.655Z,3.63
2023-01-03T23:46:28.985Z,5.10
2023-01-03T23:48:58.169Z,5.50
2023-01-03T23:51:25.953Z,6.05
2023-01-03T23:53:54.059Z,4.20
2023-01-03T23:56:23.497Z,4.63
2023-01-03T23:58:52.854Z,4.68
